U vindt ons ook hier:

Het Weer Aktueel

UK Metoffice

European Weather Network

Weather Underground

AWEKAS

Citizen Weather Observer Program (CWOP)



Select another period ( hide this area )

Eenheden Periode Custom range Directly to
Metrisch Engels Beide
Dagelijkse Wekelijkse Maandelijkse Jaarlijkse
use both date-selectors for a custom range
previous Dag
With this date

WeatherUnderground graphs for this period ( click here )


Dagelijkse Samenvatting Donderdag 30 mei 2024
Tijd Temp. ( °C ) Dew pt. ( °C ) Wind ( km/h ) van Windvlaag ( km/h ) Luchtdruk ( hPa ) Humid.( % ) Rainrate ( cm ) Zonneschijn ( W/m2 )
Hoog18,4 13,1 15,0 Westen ( 441/1165 ) 29,0 1007,5 82 - 1113
Gemiddeld14,9 11,0 5,4 Kalm #84/215 13,2 1006,4 77 - 415 #147/215
Laag12,6 9,4 -   0,0 1005,6 70 -  
Dagelijkse Tabular details for Donderdag 30 mei 2024
Tijd Temp. ( °C ) Dew pt. ( °C ) Wind ( km/h ) van Windvlaag ( km/h ) Luchtdruk ( hPa ) Humid.( % ) Rainrate ( cm ) Zonneschijn ( W/m2 )
00:04 13,2 9,8   Kalm   1007,1 80 - -
00:09 13,2 9,8   Kalm   1007,1 80 - -
00:14 13,0 9,6   Kalm   1007,0 80 - -
00:19 12,9 9,6   Kalm   1007,0 80 - -
00:24 12,8 9,4   Kalm   1007,0 80 - -
00:29 12,8 9,6   Kalm   1006,9 81 - -
00:34 12,8 9,6   Kalm   1006,9 81 - -
00:39 12,7 9,5   Kalm   1006,8 81 - -
00:44 12,7 9,5   Kalm   1006,8 81 - -
00:49 12,6 9,4   Kalm   1006,8 81 - -
00:54 12,7 9,5   Kalm   1006,8 81 - -
00:59 12,8 9,6   Kalm   1006,7 81 - -
01:04 12,9 9,7   Kalm   1006,7 81 - -
01:09 12,9 9,9   Kalm   1006,6 82 - -
01:14 13,0 10,0   Kalm   1006,6 82 - -
01:19 13,0 10,0   Kalm   1006,5 82 - -
01:24 12,9 9,9   Kalm   1006,5 82 - -
01:29 12,9 9,9   Kalm   1006,6 82 - -
01:34 13,0 10,0   Kalm   1006,5 82 - -
01:39 13,0 10,0   Kalm 2,0 1006,5 82 - -
01:44 13,0 10,0   Kalm 6,0 1006,5 82 - -
01:49 13,0 10,0   Kalm 6,0 1006,5 82 - -
01:54 13,0 10,0   Kalm 6,0 1006,5 82 - -
01:59 13,1 10,1   Kalm 5,0 1006,5 82 - -
02:04 13,1 10,1 2,0 Zuiden 8,0 1006,5 82 - -
02:09 13,1 10,1 2,0 Zuiden 8,0 1006,5 82 - -
02:14 13,0 10,0 2,0 Zuiden 8,0 1006,5 82 - -
02:19 13,0 10,0   Kalm   1006,5 82 - -
02:24 12,9 9,9   Kalm   1006,4 82 - -
02:29 12,9 9,9   Kalm   1006,5 82 - -
02:34 12,8 9,8   Kalm   1006,5 82 - -
02:39 12,9 9,9   Kalm   1006,4 82 - -
02:44 12,9 9,9   Kalm   1006,4 82 - -
02:49 12,8 9,8   Kalm   1006,4 82 - -
02:54 12,8 9,6   Kalm   1006,4 81 - -
02:59 12,8 9,8   Kalm   1006,3 82 - -
03:04 12,9 9,9   Kalm   1006,3 82 - -
03:09 12,9 9,9   Kalm   1006,3 82 - -
03:14 13,0 10,0   Kalm 2,0 1006,2 82 - -
03:19 13,1 10,1   Kalm 2,0 1006,2 82 - -
03:24 13,1 10,1   Kalm 2,0 1006,2 82 - -
03:29 13,2 10,2   Kalm   1006,2 82 - -
03:34 13,2 10,2   Kalm   1006,2 82 - -
03:39 13,2 10,2   Kalm   1006,2 82 - -
03:44 13,3 10,3   Kalm   1006,1 82 - -
03:49 13,3 10,3   Kalm   1006,1 82 - -
03:54 13,4 10,4   Kalm   1006,1 82 - -
03:59 13,4 10,4   Kalm   1006,1 82 - -
04:04 13,6 10,6   Kalm   1006,0 82 - -
04:09 13,6 10,6   Kalm   1006,0 82 - -
04:14 13,6 10,6   Kalm   1006,0 82 - -
04:19 13,6 10,6   Kalm   1006,0 82 - -
04:24 13,6 10,6   Kalm   1006,0 82 - -
04:29 13,6 10,6   Kalm 3,0 1006,0 82 - -
04:34 13,6 10,6   Kalm 3,0 1006,0 82 - -
04:39 13,6 10,6   Kalm 3,0 1005,9 82 - -
04:44 13,6 10,6   Kalm   1005,9 82 - -
04:49 13,6 10,6   Kalm   1005,8 82 - -
04:54 13,6 10,6   Kalm   1005,9 82 - -
04:59 13,6 10,6   Kalm   1005,8 82 - -
05:04 13,6 10,6   Kalm   1005,8 82 - -
05:09 13,6 10,6   Kalm   1005,7 82 - -
05:14 13,6 10,6   Kalm 5,0 1005,7 82 - -
05:19 13,6 10,6   Kalm 5,0 1005,7 82 - -
05:24 13,6 10,6   Kalm 5,0 1005,7 82 - -
05:29 13,6 10,6   Kalm 5,0 1005,7 82 - -
05:34 13,6 10,6   Kalm 5,0 1005,8 82 - -
05:39 13,6 10,6   Kalm 5,0 1005,8 82 - -
05:44 13,6 10,6   Kalm 6,0 1005,8 82 - 5
05:49 13,6 10,6   Kalm 6,0 1005,8 82 - 5
05:54 13,6 10,6   Kalm 6,0 1005,8 82 - 7
05:59 13,6 10,6   Kalm   1005,8 82 - 11
06:04 13,7 10,7   Kalm   1005,8 82 - 11
06:09 13,7 10,7   Kalm 3,0 1005,8 82 - 14
06:14 13,7 10,7   Kalm 3,0 1005,7 82 - 16
06:19 13,8 10,8   Kalm 3,0 1005,7 82 - 21
06:24 13,8 10,8   Kalm   1005,7 82 - 23
06:29 13,9 10,9   Kalm   1005,7 82 - 25
06:34 13,9 10,9   Kalm   1005,7 82 - 25
06:39 13,9 10,9   Kalm 2,0 1005,7 82 - 25
06:44 14,0 11,0   Kalm 6,0 1005,7 82 - 26
06:49 14,1 11,1   Kalm 6,0 1005,6 82 - 28
06:54 14,1 11,1   Kalm 6,0 1005,6 82 - 33
06:59 14,1 11,1   Kalm 5,0 1005,6 82 - 39
07:04 14,1 11,1   Kalm 8,0 1005,7 82 - 46
07:09 14,1 11,1 2,0 ZZW 8,0 1005,6 82 - 53
07:14 14,2 11,2   Kalm 8,0 1005,6 82 - 53
07:19 14,2 11,2   Kalm 6,0 1005,7 82 - 51
07:24 14,2 11,2 2,0 WZW 8,0 1005,7 82 - 53
07:29 14,2 11,2 2,0 WZW 10,0 1005,8 82 - 60
07:34 14,2 11,2 3,0 WZW 13,0 1005,8 82 - 77
07:39 14,3 11,3 3,0 WZW 13,0 1005,8 82 - 88
07:44 14,4 11,4 3,0 WZW 13,0 1005,8 82 - 95
07:49 14,4 11,4 2,0 Westen 8,0 1005,9 82 - 107
07:54 14,6 11,6 3,0 WZW 15,0 1005,9 82 - 113
07:59 14,6 11,6 3,0 WZW 15,0 1005,9 82 - 127
08:04 14,6 11,6 5,0 Westen 15,0 1005,9 82 - 142
08:09 14,7 11,7 5,0 Westen 18,0 1005,9 82 - 149
08:14 14,7 11,7 6,0 Westen 18,0 1005,8 82 - 158
08:19 14,8 11,6 5,0 WZW 18,0 1005,8 81 - 162
08:24 14,9 11,7 5,0 WZW 15,0 1005,8 81 - 174
08:29 15,0 11,7 5,0 WZW 15,0 1005,8 81 - 183
08:34 15,2 11,8 5,0 Westen 15,0 1005,9 80 - 195
08:39 15,2 11,8 5,0 Westen 15,0 1005,9 80 - 206
08:44 15,2 11,8 5,0 WZW 15,0 1005,9 80 - 232
08:49 15,2 11,6 5,0 Westen 15,0 1005,9 79 - 232
08:54 15,1 11,5 6,0 Westen 15,0 1005,9 79 - 227
08:59 15,1 11,3 5,0 WZW 15,0 1005,9 78 - 408
09:04 15,2 11,4 5,0 WZW 15,0 1005,9 78 - 485
09:09 15,3 11,4 6,0 WZW 16,0 1006,0 78 - 589
09:14 15,4 11,4 6,0 WZW 16,0 1006,0 77 - 503
09:19 15,4 11,4 6,0 WZW 16,0 1006,1 77 - 383
09:24 15,4 11,4 8,0 WZW 19,0 1006,0 77 - 357
09:29 15,9 11,7 6,0 Westen 19,0 1006,0 76 - 842
09:34 16,1 11,9 6,0 Westen 19,0 1006,0 76 - 809
09:39 15,9 11,4 6,0 Westen 19,0 1006,0 75 - 288
09:44 15,6 11,2 6,0 Westen 19,0 1006,0 75 - 325
09:49 15,6 11,2 6,0 Westen 18,0 1006,0 75 - 905
09:54 16,0 11,6 8,0 WZW 18,0 1006,0 75 - 905
09:59 16,1 11,7 8,0 WZW 18,0 1006,0 75 - 958
10:04 16,1 11,7 6,0 WZW 16,0 1006,1 75 - 373
10:09 15,7 11,2 6,0 WZW 16,0 1006,1 75 - 269
10:14 15,4 11,0 6,0 WZW 16,0 1006,1 75 - 220
10:19 15,3 10,9 6,0 WZW 16,0 1006,1 75 - 248
10:24 15,2 10,8 5,0 WZW 13,0 1006,1 75 - 248
10:29 15,2 10,8 6,0 WZW 18,0 1006,1 75 - 230
10:34 15,2 10,8 6,0 WZW 18,0 1006,1 75 - 338
10:39 15,3 10,7 6,0 WZW 18,0 1006,2 75 - 338
10:44 15,3 10,7 6,0 WZW 16,0 1006,2 74 - 325
10:49 16,1 11,4 8,0 WZW 19,0 1006,2 74 - 905
10:54 16,4 11,7 8,0 WZW 19,0 1006,2 74 - 888
10:59 16,2 11,3 8,0 Westen 19,0 1006,2 73 - 283
11:04 15,9 11,1 6,0 Westen 16,0 1006,2 73 - 330
11:09 15,8 10,9 5,0 Westen 15,0 1006,2 73 - 262
11:14 15,6 10,8 5,0 WZW 15,0 1006,2 73 - 264
11:19 15,5 10,7 6,0 WZW 15,0 1006,3 73 - 218
11:24 15,4 10,6 10,0 WZW 21,0 1006,3 73 - 204
11:29 15,3 10,5 10,0 WZW 21,0 1006,3 73 - 292
11:34 16,0 11,2 10,0 WZW 23,0 1006,3 73 - 979
11:39 16,1 11,2 11,0 WZW 23,0 1006,3 73 - 367
11:44 16,7 11,6 11,0 ZW 23,0 1006,3 72 - 1093
11:49 17,2 12,1 13,0 WZW 23,0 1006,3 72 - 1093
11:54 17,1 11,8 13,0 Westen 23,0 1006,3 72 - 339
11:59 16,5 11,4 11,0 Westen 23,0 1006,4 72 - 1009
12:04 16,4 11,3 13,0 Westen 27,0 1006,4 72 - 1009
12:09 16,8 11,7 15,0 WZW 27,0 1006,4 72 - 872
12:14 17,1 11,8 15,0 WZW 27,0 1006,4 72 - 1090
12:19 17,2 11,9 13,0 WZW 24,0 1006,5 71 - 376
12:24 17,2 11,9 11,0 WZW 21,0 1006,5 71 - 969
12:29 17,3 12,0 10,0 WZW 21,0 1006,5 71 - 995
12:34 17,2 11,8 11,0 WZW 21,0 1006,5 71 - 436
12:39 17,1 11,8 10,0 WZW 23,0 1006,6 71 - 374
12:44 17,1 11,8 10,0 WZW 23,0 1006,7 71 - 380
12:49 16,7 11,6 13,0 WZW 23,0 1006,6 72 - 380
12:54 16,9 11,6 13,0 WZW 23,0 1006,6 71 - 974
12:59 17,9 12,4 13,0 WZW 23,0 1006,6 71 - 1085
13:04 18,1 12,6 11,0 WZW 23,0 1006,6 70 - 1016
13:09 18,4 13,1 11,0 WZW 23,0 1006,6 71 - 930
13:14 18,2 12,4 13,0 WZW 23,0 1006,6 71 - 863
13:19 17,9 12,6 13,0 WZW 24,0 1006,7 71 - 802
13:24 17,7 12,4 13,0 Westen 24,0 1006,6 71 - 756
13:29 17,7 12,4 11,0 Westen 24,0 1006,7 71 - 278
13:34 17,2 11,9 8,0 Westen 23,0 1006,7 73 - 346
13:39 16,7 11,8 8,0 Westen 23,0 1006,8 73 - 406
13:44 16,7 11,6 10,0 WNW 21,0 1006,8 72 - 450
13:49 16,7 11,6 11,0 WNW 26,0 1006,8 72 - 742
13:54 17,0 11,8 13,0 Westen 26,0 1006,8 72 - 742
13:59 16,9 11,6 13,0 Westen 26,0 1006,8 72 - 534
14:04 16,4 11,3 11,0 Westen 24,0 1006,8 72 - 575
14:09 16,6 11,6 10,0 Westen 19,0 1006,8 72 - 536
14:14 16,4 11,3 10,0 Westen 19,0 1006,8 72 - 318
14:19 15,9 11,1 11,0 WZW 21,0 1006,9 73 - 360
14:24 15,9 11,1 11,0 Westen 21,0 1006,9 73 - 366
14:29 15,9 11,1 10,0 Westen 21,0 1006,9 73 - 366
14:34 15,9 10,9 11,0 Westen 21,0 1006,9 73 - 367
14:39 15,9 11,1 13,0 Westen 21,0 1007,0 73 - 838
14:44 16,4 11,6 11,0 Westen 23,0 1007,0 73 - 838
14:49 16,5 11,6 10,0 Westen 24,0 1007,0 73 - 603
14:54 16,5 11,4 11,0 Westen 24,0 1007,0 72 - 536
14:59 16,5 11,4 10,0 Westen 24,0 1007,0 72 - 536
15:04 16,4 11,3 11,0 Westen 24,0 1007,0 72 - 396
15:09 16,4 11,6 10,0 Westen 24,0 1007,0 73 - 396
15:14 16,6 11,7 10,0 Westen 29,0 1006,9 73 - 371
15:19 17,6 12,5 13,0 Westen 29,0 1007,0 72 - 1113
15:24 18,0 12,8 13,0 Westen 29,0 1006,9 72 - 1071
15:29 17,9 12,6 13,0 Westen 24,0 1007,0 71 - 628
15:34 17,6 12,3 11,0 Westen 24,0 1006,9 72 - 378
15:39 16,9 11,8 10,0 Westen 24,0 1007,0 72 - 357
15:44 16,7 11,8 11,0 Westen 24,0 1007,0 73 - 445
15:49 16,8 11,9 11,0 WNW 27,0 1007,1 73 - 522
15:54 16,8 11,9 13,0 WNW 27,0 1007,1 73 - 383
15:59 16,6 11,7 11,0 WNW 27,0 1007,2 73 - 413
16:04 16,4 11,6 11,0 WNW 23,0 1007,2 73 - 350
16:09 16,1 11,3 13,0 WNW 26,0 1007,2 73 - 413
16:14 16,1 11,3 13,0 WNW 27,0 1007,2 73 - 431
16:19 16,1 11,3 13,0 WNW 27,0 1007,2 73 - 452
16:24 16,1 11,4 11,0 WNW 27,0 1007,2 74 - 394
16:29 16,1 11,4 11,0 WNW 27,0 1007,2 74 - 374
16:34 15,9 11,3 11,0 WNW 27,0 1007,3 74 - 381
16:39 16,0 11,4 11,0 WNW 27,0 1007,3 74 - 336
16:44 15,9 11,3 11,0 WNW 24,0 1007,3 74 - 353
16:49 15,7 11,1 11,0 Westen 24,0 1007,2 74 - 330
16:54 15,5 10,9 11,0 Westen 24,0 1007,2 74 - 250
16:59 15,6 11,0 8,0 Westen 19,0 1007,2 74 - 264
17:04 15,6 11,0 8,0 WNW 26,0 1007,2 74 - 323
17:09 15,6 11,0 11,0 WNW 26,0 1007,2 74 - 281
17:14 15,5 10,9 11,0 WNW 26,0 1007,2 74 - 278
17:19 15,4 10,8 11,0 WNW 23,0 1007,3 74 - 378
17:24 15,6 11,0 13,0 WNW 23,0 1007,3 74 - 371
17:29 15,7 11,1 11,0 WNW 24,0 1007,3 74 - 345
17:34 15,7 11,1 11,0 WNW 24,0 1007,4 74 - 427
17:39 15,8 10,9 13,0 WNW 26,0 1007,4 73 - 561
17:44 16,1 11,3 13,0 WNW 26,0 1007,4 73 - 670
17:49 16,3 11,3 13,0 WNW 26,0 1007,5 73 - 673
17:54 16,5 11,4 11,0 WNW 24,0 1007,5 72 - 621
Dagelijkse Samenvatting Donderdag 30 mei 2024
Tijd Temp. ( °C ) Dew pt. ( °C ) Wind ( km/h ) van Windvlaag ( km/h ) Luchtdruk ( hPa ) Humid.( % ) Rainrate ( cm ) Zonneschijn ( W/m2 )
Hoog18,4 13,1 15,0 Westen ( 441/1165 ) 29,0 1007,5 82 - 1113
Gemiddeld14,9 11,0 5,4 Kalm #84/215 13,2 1006,4 77 - 415 #147/215
Laag12,6 9,4 -   0,0 1005,6 70 -  
Dagelijkse Tabular details for Donderdag 30 mei 2024
Tijd Temp. ( °C ) Dew pt. ( °C ) Wind ( km/h ) van Windvlaag ( km/h ) Luchtdruk ( hPa ) Humid.( % ) Rainrate ( cm ) Zonneschijn ( W/m2 )
00:04 13,2 9,8   Kalm   1007,1 80 - -
00:09 13,2 9,8   Kalm   1007,1 80 - -
00:14 13,0 9,6   Kalm   1007,0 80 - -
00:19 12,9 9,6   Kalm   1007,0 80 - -
00:24 12,8 9,4   Kalm   1007,0 80 - -
00:29 12,8 9,6   Kalm   1006,9 81 - -
00:34 12,8 9,6   Kalm   1006,9 81 - -
00:39 12,7 9,5   Kalm   1006,8 81 - -
00:44 12,7 9,5   Kalm   1006,8 81 - -
00:49 12,6 9,4   Kalm   1006,8 81 - -
00:54 12,7 9,5   Kalm   1006,8 81 - -
00:59 12,8 9,6   Kalm   1006,7 81 - -
01:04 12,9 9,7   Kalm   1006,7 81 - -
01:09 12,9 9,9   Kalm   1006,6 82 - -
01:14 13,0 10,0   Kalm   1006,6 82 - -
01:19 13,0 10,0   Kalm   1006,5 82 - -
01:24 12,9 9,9   Kalm   1006,5 82 - -
01:29 12,9 9,9   Kalm   1006,6 82 - -
01:34 13,0 10,0   Kalm   1006,5 82 - -
01:39 13,0 10,0   Kalm 2,0 1006,5 82 - -
01:44 13,0 10,0   Kalm 6,0 1006,5 82 - -
01:49 13,0 10,0   Kalm 6,0 1006,5 82 - -
01:54 13,0 10,0   Kalm 6,0 1006,5 82 - -
01:59 13,1 10,1   Kalm 5,0 1006,5 82 - -
02:04 13,1 10,1 2,0 Zuiden 8,0 1006,5 82 - -
02:09 13,1 10,1 2,0 Zuiden 8,0 1006,5 82 - -
02:14 13,0 10,0 2,0 Zuiden 8,0 1006,5 82 - -
02:19 13,0 10,0   Kalm   1006,5 82 - -
02:24 12,9 9,9   Kalm   1006,4 82 - -
02:29 12,9 9,9   Kalm   1006,5 82 - -
02:34 12,8 9,8   Kalm   1006,5 82 - -
02:39 12,9 9,9   Kalm   1006,4 82 - -
02:44 12,9 9,9   Kalm   1006,4 82 - -
02:49 12,8 9,8   Kalm   1006,4 82 - -
02:54 12,8 9,6   Kalm   1006,4 81 - -
02:59 12,8 9,8   Kalm   1006,3 82 - -
03:04 12,9 9,9   Kalm   1006,3 82 - -
03:09 12,9 9,9   Kalm   1006,3 82 - -
03:14 13,0 10,0   Kalm 2,0 1006,2 82 - -
03:19 13,1 10,1   Kalm 2,0 1006,2 82 - -
03:24 13,1 10,1   Kalm 2,0 1006,2 82 - -
03:29 13,2 10,2   Kalm   1006,2 82 - -
03:34 13,2 10,2   Kalm   1006,2 82 - -
03:39 13,2 10,2   Kalm   1006,2 82 - -
03:44 13,3 10,3   Kalm   1006,1 82 - -
03:49 13,3 10,3   Kalm   1006,1 82 - -
03:54 13,4 10,4   Kalm   1006,1 82 - -
03:59 13,4 10,4   Kalm   1006,1 82 - -
04:04 13,6 10,6   Kalm   1006,0 82 - -
04:09 13,6 10,6   Kalm   1006,0 82 - -
04:14 13,6 10,6   Kalm   1006,0 82 - -
04:19 13,6 10,6   Kalm   1006,0 82 - -
04:24 13,6 10,6   Kalm   1006,0 82 - -
04:29 13,6 10,6   Kalm 3,0 1006,0 82 - -
04:34 13,6 10,6   Kalm 3,0 1006,0 82 - -
04:39 13,6 10,6   Kalm 3,0 1005,9 82 - -
04:44 13,6 10,6   Kalm   1005,9 82 - -
04:49 13,6 10,6   Kalm   1005,8 82 - -
04:54 13,6 10,6   Kalm   1005,9 82 - -
04:59 13,6 10,6   Kalm   1005,8 82 - -
05:04 13,6 10,6   Kalm   1005,8 82 - -
05:09 13,6 10,6   Kalm   1005,7 82 - -
05:14 13,6 10,6   Kalm 5,0 1005,7 82 - -
05:19 13,6 10,6   Kalm 5,0 1005,7 82 - -
05:24 13,6 10,6   Kalm 5,0 1005,7 82 - -
05:29 13,6 10,6   Kalm 5,0 1005,7 82 - -
05:34 13,6 10,6   Kalm 5,0 1005,8 82 - -
05:39 13,6 10,6   Kalm 5,0 1005,8 82 - -
05:44 13,6 10,6   Kalm 6,0 1005,8 82 - 5
05:49 13,6 10,6   Kalm 6,0 1005,8 82 - 5
05:54 13,6 10,6   Kalm 6,0 1005,8 82 - 7
05:59 13,6 10,6   Kalm   1005,8 82 - 11
06:04 13,7 10,7   Kalm   1005,8 82 - 11
06:09 13,7 10,7   Kalm 3,0 1005,8 82 - 14
06:14 13,7 10,7   Kalm 3,0 1005,7 82 - 16
06:19 13,8 10,8   Kalm 3,0 1005,7 82 - 21
06:24 13,8 10,8   Kalm   1005,7 82 - 23
06:29 13,9 10,9   Kalm   1005,7 82 - 25
06:34 13,9 10,9   Kalm   1005,7 82 - 25
06:39 13,9 10,9   Kalm 2,0 1005,7 82 - 25
06:44 14,0 11,0   Kalm 6,0 1005,7 82 - 26
06:49 14,1 11,1   Kalm 6,0 1005,6 82 - 28
06:54 14,1 11,1   Kalm 6,0 1005,6 82 - 33
06:59 14,1 11,1   Kalm 5,0 1005,6 82 - 39
07:04 14,1 11,1   Kalm 8,0 1005,7 82 - 46
07:09 14,1 11,1 2,0 ZZW 8,0 1005,6 82 - 53
07:14 14,2 11,2   Kalm 8,0 1005,6 82 - 53
07:19 14,2 11,2   Kalm 6,0 1005,7 82 - 51
07:24 14,2 11,2 2,0 WZW 8,0 1005,7 82 - 53
07:29 14,2 11,2 2,0 WZW 10,0 1005,8 82 - 60
07:34 14,2 11,2 3,0 WZW 13,0 1005,8 82 - 77
07:39 14,3 11,3 3,0 WZW 13,0 1005,8 82 - 88
07:44 14,4 11,4 3,0 WZW 13,0 1005,8 82 - 95
07:49 14,4 11,4 2,0 Westen 8,0 1005,9 82 - 107
07:54 14,6 11,6 3,0 WZW 15,0 1005,9 82 - 113
07:59 14,6 11,6 3,0 WZW 15,0 1005,9 82 - 127
08:04 14,6 11,6 5,0 Westen 15,0 1005,9 82 - 142
08:09 14,7 11,7 5,0 Westen 18,0 1005,9 82 - 149
08:14 14,7 11,7 6,0 Westen 18,0 1005,8 82 - 158
08:19 14,8 11,6 5,0 WZW 18,0 1005,8 81 - 162
08:24 14,9 11,7 5,0 WZW 15,0 1005,8 81 - 174
08:29 15,0 11,7 5,0 WZW 15,0 1005,8 81 - 183
08:34 15,2 11,8 5,0 Westen 15,0 1005,9 80 - 195
08:39 15,2 11,8 5,0 Westen 15,0 1005,9 80 - 206
08:44 15,2 11,8 5,0 WZW 15,0 1005,9 80 - 232
08:49 15,2 11,6 5,0 Westen 15,0 1005,9 79 - 232
08:54 15,1 11,5 6,0 Westen 15,0 1005,9 79 - 227
08:59 15,1 11,3 5,0 WZW 15,0 1005,9 78 - 408
09:04 15,2 11,4 5,0 WZW 15,0 1005,9 78 - 485
09:09 15,3 11,4 6,0 WZW 16,0 1006,0 78 - 589
09:14 15,4 11,4 6,0 WZW 16,0 1006,0 77 - 503
09:19 15,4 11,4 6,0 WZW 16,0 1006,1 77 - 383
09:24 15,4 11,4 8,0 WZW 19,0 1006,0 77 - 357
09:29 15,9 11,7 6,0 Westen 19,0 1006,0 76 - 842
09:34 16,1 11,9 6,0 Westen 19,0 1006,0 76 - 809
09:39 15,9 11,4 6,0 Westen 19,0 1006,0 75 - 288
09:44 15,6 11,2 6,0 Westen 19,0 1006,0 75 - 325
09:49 15,6 11,2 6,0 Westen 18,0 1006,0 75 - 905
09:54 16,0 11,6 8,0 WZW 18,0 1006,0 75 - 905
09:59 16,1 11,7 8,0 WZW 18,0 1006,0 75 - 958
10:04 16,1 11,7 6,0 WZW 16,0 1006,1 75 - 373
10:09 15,7 11,2 6,0 WZW 16,0 1006,1 75 - 269
10:14 15,4 11,0 6,0 WZW 16,0 1006,1 75 - 220
10:19 15,3 10,9 6,0 WZW 16,0 1006,1 75 - 248
10:24 15,2 10,8 5,0 WZW 13,0 1006,1 75 - 248
10:29 15,2 10,8 6,0 WZW 18,0 1006,1 75 - 230
10:34 15,2 10,8 6,0 WZW 18,0 1006,1 75 - 338
10:39 15,3 10,7 6,0 WZW 18,0 1006,2 75 - 338
10:44 15,3 10,7 6,0 WZW 16,0 1006,2 74 - 325
10:49 16,1 11,4 8,0 WZW 19,0 1006,2 74 - 905
10:54 16,4 11,7 8,0 WZW 19,0 1006,2 74 - 888
10:59 16,2 11,3 8,0 Westen 19,0 1006,2 73 - 283
11:04 15,9 11,1 6,0 Westen 16,0 1006,2 73 - 330
11:09 15,8 10,9 5,0 Westen 15,0 1006,2 73 - 262
11:14 15,6 10,8 5,0 WZW 15,0 1006,2 73 - 264
11:19 15,5 10,7 6,0 WZW 15,0 1006,3 73 - 218
11:24 15,4 10,6 10,0 WZW 21,0 1006,3 73 - 204
11:29 15,3 10,5 10,0 WZW 21,0 1006,3 73 - 292
11:34 16,0 11,2 10,0 WZW 23,0 1006,3 73 - 979
11:39 16,1 11,2 11,0 WZW 23,0 1006,3 73 - 367
11:44 16,7 11,6 11,0 ZW 23,0 1006,3 72 - 1093
11:49 17,2 12,1 13,0 WZW 23,0 1006,3 72 - 1093
11:54 17,1 11,8 13,0 Westen 23,0 1006,3 72 - 339
11:59 16,5 11,4 11,0 Westen 23,0 1006,4 72 - 1009
12:04 16,4 11,3 13,0 Westen 27,0 1006,4 72 - 1009
12:09 16,8 11,7 15,0 WZW 27,0 1006,4 72 - 872
12:14 17,1 11,8 15,0 WZW 27,0 1006,4 72 - 1090
12:19 17,2 11,9 13,0 WZW 24,0 1006,5 71 - 376
12:24 17,2 11,9 11,0 WZW 21,0 1006,5 71 - 969
12:29 17,3 12,0 10,0 WZW 21,0 1006,5 71 - 995
12:34 17,2 11,8 11,0 WZW 21,0 1006,5 71 - 436
12:39 17,1 11,8 10,0 WZW 23,0 1006,6 71 - 374
12:44 17,1 11,8 10,0 WZW 23,0 1006,7 71 - 380
12:49 16,7 11,6 13,0 WZW 23,0 1006,6 72 - 380
12:54 16,9 11,6 13,0 WZW 23,0 1006,6 71 - 974
12:59 17,9 12,4 13,0 WZW 23,0 1006,6 71 - 1085
13:04 18,1 12,6 11,0 WZW 23,0 1006,6 70 - 1016
13:09 18,4 13,1 11,0 WZW 23,0 1006,6 71 - 930
13:14 18,2 12,4 13,0 WZW 23,0 1006,6 71 - 863
13:19 17,9 12,6 13,0 WZW 24,0 1006,7 71 - 802
13:24 17,7 12,4 13,0 Westen 24,0 1006,6 71 - 756
13:29 17,7 12,4 11,0 Westen 24,0 1006,7 71 - 278
13:34 17,2 11,9 8,0 Westen 23,0 1006,7 73 - 346
13:39 16,7 11,8 8,0 Westen 23,0 1006,8 73 - 406
13:44 16,7 11,6 10,0 WNW 21,0 1006,8 72 - 450
13:49 16,7 11,6 11,0 WNW 26,0 1006,8 72 - 742
13:54 17,0 11,8 13,0 Westen 26,0 1006,8 72 - 742
13:59 16,9 11,6 13,0 Westen 26,0 1006,8 72 - 534
14:04 16,4 11,3 11,0 Westen 24,0 1006,8 72 - 575
14:09 16,6 11,6 10,0 Westen 19,0 1006,8 72 - 536
14:14 16,4 11,3 10,0 Westen 19,0 1006,8 72 - 318
14:19 15,9 11,1 11,0 WZW 21,0 1006,9 73 - 360
14:24 15,9 11,1 11,0 Westen 21,0 1006,9 73 - 366
14:29 15,9 11,1 10,0 Westen 21,0 1006,9 73 - 366
14:34 15,9 10,9 11,0 Westen 21,0 1006,9 73 - 367
14:39 15,9 11,1 13,0 Westen 21,0 1007,0 73 - 838
14:44 16,4 11,6 11,0 Westen 23,0 1007,0 73 - 838
14:49 16,5 11,6 10,0 Westen 24,0 1007,0 73 - 603
14:54 16,5 11,4 11,0 Westen 24,0 1007,0 72 - 536
14:59 16,5 11,4 10,0 Westen 24,0 1007,0 72 - 536
15:04 16,4 11,3 11,0 Westen 24,0 1007,0 72 - 396
15:09 16,4 11,6 10,0 Westen 24,0 1007,0 73 - 396
15:14 16,6 11,7 10,0 Westen 29,0 1006,9 73 - 371
15:19 17,6 12,5 13,0 Westen 29,0 1007,0 72 - 1113
15:24 18,0 12,8 13,0 Westen 29,0 1006,9 72 - 1071
15:29 17,9 12,6 13,0 Westen 24,0 1007,0 71 - 628
15:34 17,6 12,3 11,0 Westen 24,0 1006,9 72 - 378
15:39 16,9 11,8 10,0 Westen 24,0 1007,0 72 - 357
15:44 16,7 11,8 11,0 Westen 24,0 1007,0 73 - 445
15:49 16,8 11,9 11,0 WNW 27,0 1007,1 73 - 522
15:54 16,8 11,9 13,0 WNW 27,0 1007,1 73 - 383
15:59 16,6 11,7 11,0 WNW 27,0 1007,2 73 - 413
16:04 16,4 11,6 11,0 WNW 23,0 1007,2 73 - 350
16:09 16,1 11,3 13,0 WNW 26,0 1007,2 73 - 413
16:14 16,1 11,3 13,0 WNW 27,0 1007,2 73 - 431
16:19 16,1 11,3 13,0 WNW 27,0 1007,2 73 - 452
16:24 16,1 11,4 11,0 WNW 27,0 1007,2 74 - 394
16:29 16,1 11,4 11,0 WNW 27,0 1007,2 74 - 374
16:34 15,9 11,3 11,0 WNW 27,0 1007,3 74 - 381
16:39 16,0 11,4 11,0 WNW 27,0 1007,3 74 - 336
16:44 15,9 11,3 11,0 WNW 24,0 1007,3 74 - 353
16:49 15,7 11,1 11,0 Westen 24,0 1007,2 74 - 330
16:54 15,5 10,9 11,0 Westen 24,0 1007,2 74 - 250
16:59 15,6 11,0 8,0 Westen 19,0 1007,2 74 - 264
17:04 15,6 11,0 8,0 WNW 26,0 1007,2 74 - 323
17:09 15,6 11,0 11,0 WNW 26,0 1007,2 74 - 281
17:14 15,5 10,9 11,0 WNW 26,0 1007,2 74 - 278
17:19 15,4 10,8 11,0 WNW 23,0 1007,3 74 - 378
17:24 15,6 11,0 13,0 WNW 23,0 1007,3 74 - 371
17:29 15,7 11,1 11,0 WNW 24,0 1007,3 74 - 345
17:34 15,7 11,1 11,0 WNW 24,0 1007,4 74 - 427
17:39 15,8 10,9 13,0 WNW 26,0 1007,4 73 - 561
17:44 16,1 11,3 13,0 WNW 26,0 1007,4 73 - 670
17:49 16,3 11,3 13,0 WNW 26,0 1007,5 73 - 673
17:54 16,5 11,4 11,0 WNW 24,0 1007,5 72 - 621

Download your copy of this data-set  here

Our weather-data as stored at Weather Underground. Script ontwikkeld door Jim McMurry. Aangepast voor de template door Leuven-Template.eu

Apparatuur in gebruik:

Weerstation
Davis VP2

Weerprogramma
Cumulus

Weercomputer
Gigabyte Brix

Webleverancier
GetHost

Davis VP2

Cumulus

Gigabyte Brix

GetHost